Weather observations for the past three days for
Ludington, Mason County Airport
Metric (Imperial)
Date Time (edt) Wind (kph) Vis. (km) Weather Sky Cond. Temperature (ºC) Relative Humidity Wind Chill (°C) Heat Index (°C) Pressure Precipitation (cm)
Air Dwpt 6 hour altimeter (cm) sea level (mb) 1 hr 3 hr 6 hr
Max. Min.
04 18:55 S 33 G 44 16.09 A Few Clouds and Breezy FEW110 21 4 33% 74.6 0.0
04 18:35 S 33 G 48 16.09 Partly Cloudy and Breezy SCT110 21 4 33% 74.63 0.0
04 18:15 S 33 G 50 16.09 Mostly Cloudy and Breezy BKN100 BKN120 21 4 33% 74.63 0.0
04 17:55 S 31 G 43 16.09 Mostly Cloudy BKN100 21 4 33% 74.65 0.0
04 17:35 S 33 G 54 16.09 Fair and Breezy CLR 21 4 33% 74.65 0.0
04 17:15 S 37 G 52 16.09 Fair and Breezy CLR 21 5 35% 74.68 0.0
04 16:55 S 44 G 57 16.09 Fair and Windy CLR 20 5 38% 74.68 0.0
04 16:35 S 41 G 52 16.09 A Few Clouds and Breezy FEW120 20 4 35% 74.7 0.0
04 16:15 S 41 G 63 16.09 Fair and Breezy CLR 20 4 35% 74.73 0.0
04 15:55 S 41 G 59 16.09 Fair and Breezy CLR 20 4 35% 74.73 0.0
04 15:35 S 43 G 54 16.09 Fair and Windy CLR 21 4 33% 74.73 0.0
04 15:15 S 39 G 57 16.09 Fair and Breezy CLR 21 4 33% 74.78 0.0
04 14:55 S 41 G 61 16.09 Fair and Breezy CLR 21 3 31% 74.78 0.0
04 14:35 S 46 G 56 16.09 Fair and Windy CLR 21 3 31% 74.75 0.0
04 14:15 S 41 G 56 16.09 Fair and Breezy CLR 21 3 31% 74.78 0.0
04 13:55 SW 39 G 48 16.09 Fair and Breezy CLR 21 3 20.7 9.2 31% 74.8 0.0
04 13:35 SW 33 G 46 16.09 Fair and Breezy CLR 20 3 33% 74.8 0.0
04 13:15 SW 41 G 54 16.09 Fair and Breezy CLR 20 3 33% 74.8 0.0
04 12:55 SW 43 G 54 16.09 Fair and Windy CLR 19 3 35% 74.83 0.0
04 12:35 SW 37 G 52 16.09 Fair and Breezy CLR 17 4 42% 74.88 0.0
04 12:15 SW 35 G 48 16.09 Fair and Breezy CLR 17 3 39% 74.9 0.0
04 11:55 SW 35 G 54 16.09 Fair and Breezy CLR 17 3 39% 74.9 0.0
04 11:35 SW 37 G 48 16.09 Fair and Breezy CLR 18 2 34% 74.9 0.0
04 11:15 SW 33 G 46 16.09 Fair and Breezy CLR 18 2 34% 74.93 0.0
04 10:55 SW 35 G 48 16.09 Fair and Breezy CLR 18 3 37% 74.96 0.0
04 10:35 S 35 G 44 16.09 Fair and Breezy CLR 17 3 39% 74.96 0.0
04 10:15 S 24 G 43 16.09 Fair CLR 16 4 45% 74.98 0.0
04 09:55 S 22 G 37 16.09 Fair CLR 16 4 45% 74.98 0.0
04 09:35 S 28 G 41 16.09 Fair CLR 15 4 48% 75.03 0.0
04 09:15 S 30 16.09 Fair CLR 14 4 51% 75.03 0.0
04 08:55 S 20 16.09 Fair CLR 14 4 51% 75.03 0.0
04 08:35 S 15 16.09 Fair CLR 13 5 59% 75.06 0.0
04 08:15 S 7 16.09 Fair CLR 11 5 67% 75.03 0.0
04 07:55 S 4 16.09 Fair CLR 9 5 12.2 5.2 76% 75.03 0.0
04 07:35 S 7 16.09 Fair CLR 8 5 82% 7 75.03 0.0
04 07:15 SE 9 16.09 Fair CLR 7 4 81% 5 75.06 0.0
04 06:55 SE 4 16.09 Fair CLR 6 4 87% 75.06 0.0
04 06:35 SE 7 16.09 Fair CLR 6 4 87% 5 75.06 0.0
04 06:15 S 4 16.09 Fair CLR 6 4 87% 75.08 0.0
04 05:55 S 6 16.09 Fair CLR 7 5 87% 75.08 0.0
04 05:35 S 6 16.09 Fair CLR 6 4 87% 75.11 0.0
04 05:15 S 6 16.09 Fair CLR 7 4 81% 75.13 0.0
04 04:55 S 7 16.09 Fair CLR 8 5 82% 7 75.11 0.0
04 04:35 S 7 16.09 Fair CLR 8 4 76% 7 75.13 0.0
04 04:15 S 6 16.09 Fair CLR 8 4 76% 75.16 0.0
04 03:55 SW 6 16.09 Fair CLR 9 5 76% 75.16 0.0
04 03:35 S 7 16.09 Fair CLR 10 5 71% 9 75.16 0.0
04 03:15 SW 20 16.09 Fair CLR 11 5 67% 75.16 0.0
04 02:55 SW 17 16.09 Fair CLR 11 5 67% 75.18 0.0
04 02:35 SW 20 16.09 Fair CLR 11 5 67% 75.18 0.0
04 02:15 SW 15 16.09 Fair CLR 11 5 67% 75.21 0.0
04 01:55 SW 15 G 28 16.09 Fair CLR 12 5 13.1 11.5 63% 75.21 0.0
04 01:35 S 17 16.09 Fair CLR 12 5 63% 75.18 0.0
04 01:15 S 15 G 26 16.09 Fair CLR 13 5 59% 75.18 0.0
04 00:55 S 19 G 26 16.09 Fair CLR 13 5 59% 75.21 0.0
04 00:35 S 19 G 28 16.09 Fair CLR 12 5 63% 75.21 0.0
04 00:15 S 17 G 26 16.09 Fair CLR 12 5 63% 75.23 0.0
03 23:55 S 13 16.09 Fair CLR 13 5 59% 75.23 0.0
03 23:35 S 15 16.09 Fair CLR 12 5 63% 75.23 0.0
03 23:15 S 13 16.09 Fair CLR 12 5 63% 75.26 0.0
03 22:55 S 15 16.09 Fair CLR 12 5 63% 75.26 0.0
03 22:35 S 17 16.09 Fair CLR 12 5 63% 75.29 0.0
03 22:15 S 13 16.09 Fair CLR 12 5 63% 75.29 0.0
03 21:55 S 15 16.09 A Few Clouds FEW110 12 4 58% 75.29 0.0
03 21:35 S 20 G 30 16.09 Fair CLR 13 4 55% 75.29 0.0
03 21:15 S 19 G 33 16.09 A Few Clouds FEW120 13 4 55% 75.29 0.0
03 20:55 S 22 16.09 Fair CLR 13 4 55% 75.29 0.0
03 20:35 S 28 G 35 16.09 Fair CLR 13 4 55% 75.29 0.0
03 20:15 S 30 G 39 16.09 Fair CLR 13 4 55% 75.29 0.0
03 19:55 S 30 G 44 16.09 Fair CLR 13 4 13.2 9.8 55% 75.29 0.0
03 19:35 S 33 G 44 16.09 Fair and Breezy CLR 13 4 55% 75.29 0.0
03 19:15 S 33 G 50 16.09 Fair and Breezy CLR 13 4 55% 75.31 0.0
03 18:55 S 31 G 52 16.09 Fair CLR 13 4 55% 75.34 0.0
03 18:35 S 35 G 59 16.09 Fair and Breezy CLR 13 4 55% 75.36 0.0
03 18:15 S 41 G 54 16.09 Fair and Breezy CLR 13 3 51% 75.39 0.0
03 17:55 S 44 G 52 16.09 Fair and Windy CLR 13 4 55% 75.39 0.0
03 17:35 S 37 G 65 16.09 Fair and Breezy CLR 13 4 55% 75.39 0.0
03 17:15 S 44 G 65 16.09 Fair and Windy CLR 13 4 55% 75.41 0.0
03 16:55 S 44 G 59 16.09 Fair and Windy CLR 13 4 55% 75.44 0.0
03 16:35 S 39 G 65 16.09 A Few Clouds and Breezy FEW075 12 4 58% 75.46 0.0
03 16:15 SW 33 G 59 16.09 Mostly Cloudy and Breezy BKN075 11 5 67% 75.51 0.0
03 15:55 SW 31 G 56 16.09 Overcast OVC085 11 4 62% 75.51 0.0
03 15:35 SW 39 G 56 16.09 Overcast and Breezy OVC070 11 4 62% 75.54 0.0
03 15:15 S 31 G 43 16.09 Overcast OVC070 11 5 67% 75.57 0.0
03 14:55 SW 30 G 41 16.09 Overcast OVC070 10 5 71% 7 75.59 0.0
03 14:35 SW 30 G 44 16.09 Overcast BKN070 OVC080 10 5 71% 7 75.57 0.0
03 14:15 SW 35 G 44 16.09 Overcast and Breezy BKN070 OVC090 10 4 67% 7 75.59 0.0
03 13:55 SW 28 G 44 16.09 Overcast SCT070 OVC090 11 4 13.2 7 62% 75.59 0.0
03 13:35 SW 31 G 46 16.09 Overcast OVC090 11 4 62% 75.59 0.0
03 13:15 SW 28 G 37 16.09 Overcast OVC090 13 5 59% 75.59 0.0
03 12:55 S 28 G 37 16.09 Overcast OVC090 11 4 62% 75.62 0.0
03 12:35 S 24 G 33 16.09 Mostly Cloudy BKN090 11 4 62% 75.64 0.0
03 12:15 S 24 G 30 16.09 Overcast SCT060 OVC080 11 3 58% 75.67 0.0
03 11:55 SW 22 G 35 16.09 Overcast BKN070 OVC080 10 3 62% 7 75.69 0.0
03 11:35 SW 22 G 39 16.09 Overcast OVC080 10 3 62% 7 75.69 0.0
03 11:15 SW 31 G 39 16.09 Overcast BKN060 OVC075 10 2 58% 7 75.69 0.0
03 10:55 S 24 G 41 16.09 Overcast OVC065 9 2 62% 6 75.69 0.0
03 10:35 Vrbl 9 G 35 16.09 Light Rain OVC060 9 2 62% 8 75.72 0.0
03 10:15 SW 35 G 50 16.09 Overcast and Breezy OVC060 9 2 62% 5 75.72 0.0
03 09:55 S 28 G 37 16.09 Overcast OVC060 9 2 62% 6 75.69 0.0
03 09:35 S 24 G 37 16.09 Overcast OVC060 8 2 66% 5 75.74 0.0
03 09:15 S 17 16.09 Light Rain BKN060 OVC070 8 3 71% 6 75.74 0.0
03 08:55 S 17 16.09 Light Rain BKN050 OVC060 7 3 76% 4 75.77 0.0
03 08:35 SW 17 16.09 Light Rain OVC060 7 3 76% 4 75.79 0.0
03 08:15 SW 15 G 33 16.09 Light Rain BKN060 OVC070 8 1 62% 6 75.79 0.0
03 07:55 SW 20 G 37 16.09 Overcast OVC070 9 1 8.6 6 58% 6 75.74 0.0
03 07:35 SW 30 16.09 Overcast OVC070 9 0 54% 6 75.74 0.0
03 07:15 SW 20 16.09 Light Rain OVC070 8 1 62% 5 75.74 0.0
03 06:55 SW 19 G 28 16.09 Overcast BKN070 OVC095 8 1 62% 5 75.77 0.0
03 06:35 SW 17 16.09 Overcast SCT070 OVC095 7 2 71% 4 75.74 0.0
03 06:15 SW 19 16.09 Overcast BKN070 OVC095 7 2 71% 4 75.77 0.0
03 05:55 SW 22 G 33 16.09 Overcast OVC090 7 1 66% 4 75.79 0.0
03 05:35 SW 15 G 30 16.09 Mostly Cloudy BKN080 BKN120 7 1 66% 5 75.79 0.0
03 05:15 SW 19 16.09 A Few Clouds FEW080 FEW120 7 1 66% 4 75.79 0.0
03 04:55 SW 19 16.09 Fair CLR 7 1 66% 4 75.79 0.0
03 04:35 SW 22 16.09 Fair CLR 7 1 66% 4 75.82 0.0
03 04:15 SW 20 G 33 16.09 Fair CLR 7 1 66% 4 75.82 0.0
03 03:55 SW 20 16.09 Fair CLR 7 1 66% 4 75.82 0.0
03 03:35 SW 20 G 30 16.09 Fair CLR 7 1 66% 4 75.84 0.0
03 03:15 S 22 16.09 Fair CLR 8 0 57% 5 75.82 0.0
03 02:55 SW 22 G 30 16.09 Fair CLR 8 0 57% 5 75.87 0.0
03 02:35 S 19 16.09 Fair CLR 8 -1 53% 5 75.87 0.0
03 02:15 S 28 G 33 16.09 Fair CLR 8 -2 50% 4 75.9 0.0
03 01:55 S 20 16.09 Fair CLR 7 -3 6.4 4.2 49% 4 75.92 0.0
03 01:35 SE 9 16.09 Fair CLR 5 -3 57% 3 75.95 0.0
03 01:15 SE 9 16.09 Fair CLR 5 -3 57% 3 75.97 0.0
03 00:55 SE 9 16.09 Fair CLR 4 -3 61% 2 75.97 0.0
03 00:35 SE 7 16.09 Fair CLR 4 -3 61% 2 76 0.0
03 00:15 S 7 16.09 Fair CLR 5 -2 61% 4 76.02 0.0
02 23:55 S 11 16.09 Fair CLR 5 -2 61% 3 76.02 0.0
02 23:35 S 13 16.09 Fair CLR 5 -3 57% 2 76.05 0.0
02 23:15 S 9 16.09 Fair CLR 5 -3 57% 3 76.07 0.0
02 22:55 S 13 16.09 Fair CLR 5 -4 53% 2 76.07 0.0
02 22:35 S 15 16.09 Fair CLR 5 -4 53% 2 76.1 0.0
02 22:15 S 13 16.09 Fair CLR 5 -3 57% 2 76.1 0.0
02 21:55 S 17 16.09 Fair CLR 5 -2 61% 2 76.1 0.0
02 21:35 SW 17 16.09 Fair CLR 5 -2 61% 2 76.1 0.0
02 21:15 SW 20 16.09 Fair CLR 5 -2 61% 1 76.1 0.0
02 20:55 SW 19 16.09 Fair CLR 6 -1 61% 3 76.1 0.0
02 20:35 SW 19 16.09 Fair CLR 6 -1 61% 3 76.12 0.0
02 20:15 SW 17 16.09 Fair CLR 6 -1 61% 3 76.12 0.0
02 19:55 SW 19 16.09 Fair CLR 6 -3 10 6.4 53% 3 76.12 0.0
02 19:35 SW 19 16.09 Fair CLR 7 -2 53% 4 76.15 0.0
02 19:15 SW 19 16.09 Fair CLR 7 -1 57% 4 76.15 0.0
02 18:55 SW 20 16.09 Fair CLR 8 0 57% 5 76.15 0.0
02 18:35 SW 9 16.09 Fair CLR 9 -3 43% 8 76.17 0.0
02 18:15 SW 15 16.09 Fair CLR 9 -4 40% 7 76.17 0.0
02 17:55 W 15 16.09 Fair CLR 9 -4 40% 7 76.2 0.0
02 17:35 SW 13 16.09 Fair CLR 9 -5 37% 7 76.2 0.0
02 17:15 Vrbl 7 16.09 Fair CLR 9 -5 37% 8 76.23 0.0
02 16:55 W 13 16.09 Fair CLR 9 -5 37% 7 76.23 0.0
02 16:35 W 11 16.09 Fair CLR 9 -4 40% 8 76.25 0.0
02 16:15 SW 17 16.09 Fair CLR 9 -5 37% 7 76.25 0.0
02 15:55 SW 17 16.09 Fair CLR 9 -4 40% 7 76.28 0.0
02 15:35 SW 15 16.09 Fair CLR 9 -6 34% 7 76.3 0.0
02 15:15 Vrbl 7 16.09 Fair CLR 8 -6 37% 7 76.33 0.0
02 14:55 W 13 16.09 Fair CLR 8 -5 40% 6 76.35 0.0
02 14:35 W 15 16.09 Fair CLR 8 -4 43% 6 76.35 0.0
02 14:15 W 17 G 26 16.09 Fair CLR 8 -5 40% 6 76.38 0.0
02 13:55 W 19 16.09 Fair CLR 8 -3 8.6 -0.1 46% 5 76.35 0.0
02 13:35 W 15 16.09 Fair CLR 8 -4 43% 6 76.38 0.0
02 13:15 W 15 16.09 Fair CLR 8 -2 50% 6 76.38 0.0
02 12:55 W 20 16.09 Fair CLR 7 -1 57% 4 76.38 0.0
02 12:35 W 17 16.09 Fair CLR 7 -1 57% 4 76.38 0.0
02 12:15 SW 17 G 26 16.09 Fair CLR 7 0 61% 4 76.4 0.0
02 11:55 W 17 16.09 Fair CLR 7 0 61% 4 76.4 0.0
02 11:35 SW 17 16.09 Fair CLR 7 1 66% 4 76.4 0.0
02 11:15 SW 17 16.09 Fair CLR 7 1 66% 4 76.4 0.0
02 10:55 SW 17 16.09 Fair CLR 6 1 71% 3 76.4 0.0
02 10:35 W 11 16.09 Fair CLR 6 1 71% 4 76.4 0.0
02 10:15 SW 13 16.09 Fair CLR 6 0 66% 4 76.4 0.0
02 09:55 SW 13 16.09 Fair CLR 6 -1 61% 4 76.4 0.0
02 09:35 SW 11 16.09 Fair CLR 6 -2 57% 4 76.43 0.0
02 09:15 SW 13 16.09 Fair CLR 5 0 70% 2 76.43 0.0
02 08:55 Vrbl 2 16.09 Fair CLR 4 0 75% 76.43 0.0
02 08:35 Vrbl 4 16.09 Fair CLR 4 0 75% 76.43 0.0
02 08:15 Vrbl 2 16.09 Fair CLR 3 1 87% 76.45 0.0
02 07:55 Calm 16.09 Fair CLR 1 0 0 -3 93% 76.45 0.0
02 07:35 E 2 16.09 Fair CLR -1 -1 100% 76.43 0.0
02 07:15 Calm 16.09 A Few Clouds FEW046 -2 -2 100% 76.43 0.0
02 06:55 Calm 1.61 Fog/Mist BKN048 -2 -2 100% 76.43 0.0
02 06:35 Calm 14.48 Fair CLR -2 -2 100% 76.43 0.0
02 06:15 E 4 16.09 Partly Cloudy SCT060 -2 -2 100% 76.4 0.0
02 05:55 E 2 4.02 Fog/Mist BKN060 -2 -2 100% 76.4 0.0
02 05:35 E 2 16.09 A Few Clouds FEW060 -2 -2 100% 76.4 0.0
02 05:15 Calm 16.09 Mostly Cloudy BKN060 -1 -1 100% 76.4 0.0
02 04:55 Calm 16.09 Overcast OVC060 -1 -2 93% 76.4 0.0
02 04:35 N 4 16.09 Overcast OVC060 -2 -2 100% 76.4 0.0
02 04:15 Calm 16.09 Overcast OVC060 -2 -2 100% 76.38 0.0
02 03:55 Vrbl 2 16.09 Mostly Cloudy BKN060 -2 -2 100% 76.38 0.0
02 03:35 E 2 16.09 Partly Cloudy SCT060 -2 -2 100% 76.38 0.0
02 03:15 Calm 16.09 Partly Cloudy SCT060 -2 -2 100% 76.38 0.0
02 02:55 N 2 16.09 Fair CLR -2 -2 100% 76.38 0.0
02 02:35 N 4 16.09 Fair CLR -1 -1 100% 76.4 0.0
02 02:15 NW 4 16.09 Fair CLR -1 -2 93% 76.4 0.0
02 01:55 N 4 16.09 Fair CLR -1 -2 3.6 -0.7 93% 76.4 0.0
02 01:35 NW 4 16.09 Fair CLR 0 -1 93% 76.4 0.0
02 01:15 NW 4 16.09 Fair CLR 0 -1 93% 76.4 0.0
02 00:55 NW 6 16.09 Partly Cloudy SCT070 2 -1 81% 76.4 0.0
02 00:35 NW 6 16.09 Mostly Cloudy BKN070 2 -1 81% 76.38 0.0
02 00:15 NW 6 16.09 Overcast OVC080 2 -1 81% 76.4 0.0
01 23:55 NW 7 16.09 Overcast OVC080 2 -1 81% 0 76.4 0.0
01 23:35 NW 6 16.09 Overcast OVC080 2 -2 75% 76.4 0.0
01 23:15 NW 7 16.09 Overcast OVC080 3 -2 70% 1 76.38 0.0
01 22:55 NW 6 16.09 Overcast OVC080 3 -1 75% 76.38 0.0
01 22:35 NW 9 16.09 Overcast OVC080 3 -2 70% 1 76.4 0.0
01 22:15 N 9 16.09 Overcast OVC080 3 -2 70% 1 76.4 0.0
01 21:55 N 7 16.09 Overcast OVC080 3 -2 70% 1 76.4 0.0
01 21:35 NW 11 16.09 Overcast OVC080 3 -2 70% 0 76.38 0.0
01 21:15 N 9 16.09 Overcast OVC080 3 -2 70% 1 76.38 0.0
01 20:55 N 9 16.09 Overcast OVC080 3 -1 75% 1 76.35 0.0
01 20:35 NW 15 16.09 Overcast OVC080 3 -1 75% -0 76.35 0.0
01 20:15 N 13 16.09 Overcast OVC080 3 -1 75% 0 76.35 0.0
01 19:55 NW 17 16.09 Overcast OVC090 4 -2 7.5 3.6 65% 1 76.35 0.0
01 19:35 NW 17 16.09 Overcast OVC090 4 -2 65% 1 76.35 0.0
01 19:15 N 17 16.09 Overcast OVC090 4 -2 65% 1 76.35 0.0
Date Time (edt) Wind (kph) Vis. (km) Weather Sky Cond. Air Dwpt Max. Min. Relative Humidity Wind Chill (°C) Heat Index (°C) altimeter (cm) sea level (mb) 1 hr 3 hr 6 hr
6 hour
Temperature (ºC) Pressure Precipitation (cm)